Time;durP1;ratioP1;P1;durP2;ratioP2;P2;SDS_P1;SDS_P2;PMS_P1;PMS_P2;Temp;Humidity;BMP_temperature;BMP_pressure;BME280_temperature;BME280_humidity;BME280_pressure;Samples;Min_cycle;Max_cycle;Signal;HPM_P1;HPM_P2
2022/03/08 00:01:29;;;;;;;14.48;10.65;;;;;;;3.04;100.00;100002.09;5014044;28;20480;-69
2022/03/08 00:03:55;;;;;;;12.60;9.60;;;;;;;3.02;100.00;100046.44;5014243;28;20104;-70
2022/03/08 00:06:21;;;;;;;10.88;8.23;;;;;;;3.10;100.00;100021.34;5013921;28;20033;-70
2022/03/08 00:08:46;;;;;;;11.45;8.75;;;;;;;3.02;100.00;100033.88;5014176;28;20415;-70
2022/03/08 00:11:12;;;;;;;12.25;9.45;;;;;;;3.07;100.00;100008.78;5013516;28;20034;-70
2022/03/08 00:13:38;;;;;;;13.07;9.35;;;;;;;3.21;100.00;100037.28;5013912;28;20022;-70
2022/03/08 00:16:04;;;;;;;14.32;9.45;;;;;;;2.79;100.00;100002.84;5013882;28;20030;-69
2022/03/08 00:18:29;;;;;;;14.38;10.27;;;;;;;3.07;100.00;100008.78;5013906;28;20065;-69
2022/03/08 00:20:55;;;;;;;17.08;12.52;;;;;;;3.06;100.00;100012.97;5013837;28;20055;-71
2022/03/08 00:23:20;;;;;;;13.52;10.30;;;;;;;3.24;100.00;100008.00;4996085;28;20037;-69
2022/03/08 00:25:46;;;;;;;13.77;9.90;;;;;;;3.11;100.00;100001.25;5013362;28;20026;-70
2022/03/08 00:28:11;;;;;;;13.95;9.57;;;;;;;3.32;100.00;100036.47;5013477;28;20049;-70
2022/03/08 00:30:38;;;;;;;12.07;9.25;;;;;;;3.10;100.00;99999.59;5013716;28;20073;-70
2022/03/08 00:33:03;;;;;;;14.77;10.10;;;;;;;3.34;100.00;100019.72;5013476;28;20040;-71
2022/03/08 00:35:29;;;;;;;14.77;10.40;;;;;;;3.17;100.00;100033.09;5013445;28;20125;-71
2022/03/08 00:37:56;;;;;;;14.23;10.70;;;;;;;3.10;100.00;100034.75;5013468;28;20030;-70
2022/03/08 00:40:23;;;;;;;15.73;9.95;;;;;;;3.31;100.00;100017.19;5012962;28;20499;-69
2022/03/08 00:42:50;;;;;;;15.38;10.07;;;;;;;3.26;100.00;100023.91;5013640;28;20099;-70
2022/03/08 00:45:16;;;;;;;14.88;10.18;;;;;;;2.88;100.00;99992.81;4995648;28;20449;-70
2022/03/08 00:47:42;;;;;;;14.23;10.45;;;;;;;3.36;100.00;100024.75;5013071;28;20038;-70
2022/03/08 00:50:11;;;;;;;14.93;11.00;;;;;;;3.10;100.00;100008.78;5013364;28;20030;-70
2022/03/08 00:52:37;;;;;;;16.75;12.10;;;;;;;3.23;100.00;100005.44;5013224;28;20033;-70
2022/03/08 00:55:04;;;;;;;18.98;12.77;;;;;;;3.13;100.00;99958.59;5013050;28;20037;-70
2022/03/08 00:57:30;;;;;;;16.38;11.77;;;;;;;3.46;100.00;100019.75;5013135;28;20038;-70
2022/03/08 00:59:55;;;;;;;14.10;10.27;;;;;;;3.47;100.00;100008.84;5013234;28;20085;-70
2022/03/08 01:02:32;;;;;;;15.30;10.77;;;;;;;3.21;100.00;99946.88;4862710;22;10000796;-69
2022/03/08 01:04:57;;;;;;;15.68;11.00;;;;;;;3.15;100.00;99949.38;5028508;28;20286;-70
2022/03/08 01:07:23;;;;;;;18.25;12.48;;;;;;;2.61;100.00;99892.41;5032067;28;20163;-70
2022/03/08 01:09:49;;;;;;;18.35;12.13;;;;;;;2.86;100.00;99961.88;5017564;28;20029;-70
2022/03/08 01:12:14;;;;;;;17.73;12.10;;;;;;;2.88;100.00;99965.22;5052069;28;20402;-70
2022/03/08 01:14:39;;;;;;;14.82;10.93;;;;;;;2.92;100.00;99987.00;5051940;28;20406;-70
2022/03/08 01:17:05;;;;;;;15.85;11.23;;;;;;;2.83;100.00;100008.72;5051529;28;20044;-70
2022/03/08 01:19:31;;;;;;;14.80;11.52;;;;;;;2.97;100.00;100017.13;5024278;28;20029;-70
2022/03/08 01:21:56;;;;;;;16.27;11.40;;;;;;;3.14;100.00;100008.81;5032170;28;20021;-69
2022/03/08 01:24:21;;;;;;;19.55;13.60;;;;;;;2.69;100.00;99948.44;5048596;28;20411;-70
2022/03/08 01:26:47;;;;;;;24.48;14.82;;;;;;;2.57;100.00;99936.72;5051731;28;20044;-70
2022/03/08 01:29:12;;;;;;;19.27;12.63;;;;;;;3.09;100.00;99965.25;5038846;28;20033;-70
2022/03/08 01:31:38;;;;;;;14.50;10.30;;;;;;;3.10;100.00;100006.28;5013594;28;20095;-69
2022/03/08 01:34:04;;;;;;;14.57;10.65;;;;;;;2.76;100.00;99941.75;5013456;28;20517;-69
2022/03/08 01:36:30;;;;;;;15.20;10.60;;;;;;;2.82;100.00;100004.50;5031747;28;20036;-69
2022/03/08 01:38:55;;;;;;;13.80;10.45;;;;;;;3.06;100.00;99951.88;5031663;28;20033;-70
2022/03/08 01:41:21;;;;;;;13.80;9.98;;;;;;;2.71;100.00;99900.78;5031982;28;20124;-69
2022/03/08 01:43:47;;;;;;;14.88;10.57;;;;;;;3.25;100.00;100009.66;5013089;28;20565;-70
2022/03/08 01:46:14;;;;;;;13.95;10.63;;;;;;;2.91;100.00;99941.81;5030035;28;20072;-68
2022/03/08 01:48:40;;;;;;;13.68;10.13;;;;;;;3.31;100.00;99997.09;5031371;28;20506;-69
2022/03/08 01:51:06;;;;;;;16.13;11.13;;;;;;;3.07;100.00;100006.28;5031267;28;20021;-69
2022/03/08 01:53:33;;;;;;;15.95;10.88;;;;;;;3.47;100.00;99995.44;5032068;28;20029;-69
2022/03/08 01:55:58;;;;;;;15.43;10.95;;;;;;;3.41;100.00;99972.81;5051672;28;20035;-68
2022/03/08 01:58:24;;;;;;;15.45;11.48;;;;;;;3.16;100.00;99939.34;5051369;28;20036;-69
2022/03/08 02:00:49;;;;;;;16.17;12.15;;;;;;;2.66;100.00;99940.91;5051242;28;20502;-70
2022/03/08 02:03:15;;;;;;;15.30;11.52;;;;;;;2.92;100.00;99933.44;5050644;28;20061;-69
2022/03/08 02:05:40;;;;;;;16.65;11.55;;;;;;;3.42;100.00;99995.47;5033433;28;20033;-69
2022/03/08 02:08:06;;;;;;;15.00;10.75;;;;;;;3.28;100.00;99954.41;5050914;28;20072;-69
2022/03/08 02:10:32;;;;;;;14.55;10.48;;;;;;;2.92;100.00;99981.13;5051180;28;20057;-69
2022/03/08 02:12:57;;;;;;;15.50;10.98;;;;;;;2.54;100.00;99925.81;5051275;28;20091;-69
2022/03/08 02:15:26;;;;;;;16.15;11.13;;;;;;;3.02;100.00;99957.72;5051070;28;20075;-69
2022/03/08 02:17:52;;;;;;;15.40;10.80;;;;;;;3.26;100.00;99976.19;5050526;28;20040;-69
2022/03/08 02:20:18;;;;;;;20.08;15.70;;;;;;;3.28;100.00;99968.63;5051002;28;20029;-69
2022/03/08 02:22:45;;;;;;;25.02;19.38;;;;;;;3.59;100.00;100035.66;5050804;28;20029;-69
2022/03/08 02:25:12;;;;;;;22.08;17.10;;;;;;;3.33;100.00;100013.00;5032672;28;20391;-69
2022/03/08 02:27:42;;;;;;;21.38;15.65;;;;;;;3.38;100.00;100041.50;5032722;28;20032;-69
2022/03/08 02:30:12;;;;;;;19.83;15.23;;;;;;;3.16;100.00;99976.16;5032301;28;20044;-69
2022/03/08 02:32:38;;;;;;;20.67;16.27;;;;;;;3.07;100.00;99984.50;5050580;28;20032;-69
2022/03/08 02:35:15;;;;;;;22.65;16.88;;;;;;;3.46;100.00;100049.91;5050650;28;20433;-69
2022/03/08 02:37:45;;;;;;;21.40;15.57;;;;;;;2.77;100.00;99981.94;5050470;28;20086;-69
2022/03/08 02:40:14;;;;;;;18.10;13.23;;;;;;;3.13;100.00;100032.22;5050793;28;20411;-69
2022/03/08 02:42:40;;;;;;;17.60;13.23;;;;;;;3.32;100.00;100030.59;5050347;28;20025;-69
2022/03/08 02:45:10;;;;;;;16.05;12.45;;;;;;;3.46;100.00;100042.38;5049886;28;20060;-69
2022/03/08 02:47:36;;;;;;;17.73;12.15;;;;;;;2.89;100.00;99981.97;5050640;28;20036;-69
2022/03/08 02:50:03;;;;;;;28.00;17.58;;;;;;;2.89;100.00;99978.63;5050688;28;20025;-69
2022/03/08 02:52:29;;;;;;;20.80;14.45;;;;;;;3.33;100.00;100039.81;5032382;28;20063;-68
2022/03/08 02:54:55;;;;;;;17.90;12.13;;;;;;;3.14;100.00;100033.91;5050099;28;20107;-69
2022/03/08 02:57:20;;;;;;;16.15;10.57;;;;;;;2.95;100.00;100004.56;5049968;28;20048;-70
2022/03/08 02:59:46;;;;;;;14.65;10.57;;;;;;;2.75;100.00;99986.09;5050448;28;20029;-69
2022/03/08 03:02:11;;;;;;;14.85;10.93;;;;;;;2.97;100.00;99987.81;5037587;28;20392;-70
2022/03/08 03:04:37;;;;;;;14.80;11.07;;;;;;;2.96;100.00;99998.72;5070134;28;20175;-69
2022/03/08 03:07:03;;;;;;;17.25;12.25;;;;;;;2.49;100.00;100002.72;5070164;28;20036;-69
2022/03/08 03:09:29;;;;;;;15.95;11.30;;;;;;;2.61;100.00;99981.00;5070501;28;20028;-69
2022/03/08 03:11:54;;;;;;;13.98;10.02;;;;;;;2.97;100.00;100044.75;5069810;28;20545;-69
2022/03/08 03:14:19;;;;;;;15.20;10.20;;;;;;;2.60;100.00;99989.38;5052187;28;20039;-69
2022/03/08 03:16:45;;;;;;;14.32;10.27;;;;;;;3.01;100.00;100004.56;5062298;28;20041;-70
2022/03/08 03:19:10;;;;;;;13.68;10.02;;;;;;;3.03;100.00;100042.25;5050006;28;20498;-70
2022/03/08 03:21:36;;;;;;;16.40;11.15;;;;;;;2.61;100.00;100007.78;5032109;28;20466;-69
2022/03/08 03:24:01;;;;;;;16.25;11.55;;;;;;;2.57;100.00;99999.44;5049955;28;20029;-69
2022/03/08 03:26:27;;;;;;;16.98;11.30;;;;;;;2.52;100.00;99986.00;5050131;28;20034;-69
2022/03/08 03:28:52;;;;;;;16.70;11.05;;;;;;;2.93;100.00;100043.88;5032120;28;20025;-69
2022/03/08 03:31:18;;;;;;;14.45;10.98;;;;;;;2.83;100.00;100037.16;5050253;28;20025;-69
2022/03/08 03:33:43;;;;;;;16.02;11.27;;;;;;;2.31;100.00;99990.94;5032307;28;20029;-69
2022/03/08 03:36:08;;;;;;;15.85;10.98;;;;;;;2.83;100.00;100044.69;5049973;28;20025;-70
2022/03/08 03:38:34;;;;;;;19.52;13.15;;;;;;;2.60;100.00;99989.38;5049598;28;20037;-69
2022/03/08 03:40:59;;;;;;;17.40;11.63;;;;;;;2.64;100.00;100017.84;5049401;28;20060;-69
2022/03/08 03:43:25;;;;;;;17.55;11.98;;;;;;;2.76;100.00;100045.50;5050105;28;20025;-69
2022/03/08 03:45:50;;;;;;;15.68;11.48;;;;;;;2.91;100.00;100024.63;5032141;28;20028;-70
2022/03/08 03:48:16;;;;;;;16.73;12.07;;;;;;;2.43;100.00;99973.44;5050124;28;20028;-69
2022/03/08 03:50:41;;;;;;;19.40;12.52;;;;;;;2.88;100.00;100043.03;5049775;28;20437;-70
2022/03/08 03:53:07;;;;;;;19.10;12.68;;;;;;;2.45;100.00;99958.41;5065069;28;20043;-69
2022/03/08 03:55:33;;;;;;;17.48;12.13;;;;;;;2.88;100.00;100027.13;5069734;28;20158;-70
2022/03/08 03:57:58;;;;;;;17.17;12.02;;;;;;;2.78;100.00;100018.72;5051782;28;20123;-70
2022/03/08 04:00:24;;;;;;;16.38;11.80;;;;;;;2.71;100.00;100034.59;5069241;28;20036;-70
2022/03/08 04:02:49;;;;;;;16.17;11.57;;;;;;;2.38;100.00;99995.13;5058720;28;20045;-70
2022/03/08 04:05:15;;;;;;;18.33;12.68;;;;;;;2.44;100.00;100005.19;5031778;28;20033;-69
2022/03/08 04:07:41;;;;;;;20.27;13.65;;;;;;;2.68;100.00;100019.53;5051856;28;20052;-70
2022/03/08 04:10:08;;;;;;;19.10;13.73;;;;;;;2.44;100.00;100027.78;5053214;28;20036;-69
2022/03/08 04:12:34;;;;;;;19.15;13.15;;;;;;;1.94;100.00;99968.16;5034722;28;20048;-69
2022/03/08 04:14:59;;;;;;;18.98;12.43;;;;;;;1.95;100.00;99974.81;5053152;28;20033;-69
2022/03/08 04:17:25;;;;;;;19.20;13.35;;;;;;;2.64;100.00;100025.34;5034982;28;20052;-70
2022/03/08 04:19:50;;;;;;;19.42;14.05;;;;;;;2.24;100.00;100031.84;5053056;28;20029;-70
2022/03/08 04:22:16;;;;;;;17.88;12.43;;;;;;;2.09;100.00;100041.78;5033104;28;20120;-69
2022/03/08 04:24:41;;;;;;;19.17;13.07;;;;;;;1.94;100.00;100001.53;5052600;28;20052;-69
2022/03/08 04:27:07;;;;;;;18.35;13.23;;;;;;;1.93;100.00;99973.97;5052764;28;20083;-69
2022/03/08 04:29:32;;;;;;;17.83;12.45;;;;;;;1.88;100.00;99968.13;5053140;28;20021;-69
2022/03/08 04:31:58;;;;;;;17.83;12.13;;;;;;;2.44;100.00;100035.28;5035124;28;20029;-69
2022/03/08 04:34:24;;;;;;;18.13;11.93;;;;;;;2.75;100.00;100041.31;5052870;28;20124;-70
2022/03/08 04:36:49;;;;;;;17.67;12.13;;;;;;;2.49;100.00;100051.22;5052935;28;20033;-70
2022/03/08 04:39:14;;;;;;;17.88;12.38;;;;;;;2.08;100.00;99934.81;5052775;28;20501;-69
2022/03/08 04:41:40;;;;;;;20.25;13.75;;;;;;;2.01;100.00;99993.25;5033146;28;20112;-69
2022/03/08 04:44:06;;;;;;;20.17;12.82;;;;;;;2.17;100.00;100001.72;5052421;28;20036;-67
2022/03/08 04:46:31;;;;;;;20.05;14.52;;;;;;;2.18;100.00;100020.94;5034955;28;20140;-69
2022/03/08 04:48:57;;;;;;;21.33;14.98;;;;;;;2.39;100.00;100031.94;5025820;28;20046;-69
2022/03/08 04:51:22;;;;;;;20.33;13.52;;;;;;;2.74;100.00;100014.53;5012844;28;20057;-70
2022/03/08 04:53:48;;;;;;;34.58;20.05;;;;;;;1.93;100.00;99969.81;5012650;28;20021;-69
2022/03/08 04:56:13;;;;;;;32.45;20.55;;;;;;;2.37;100.00;100032.75;5011835;28;20034;-69
2022/03/08 04:58:39;;;;;;;29.00;18.70;;;;;;;1.84;100.00;99968.91;5012669;28;20085;-69
2022/03/08 05:01:04;;;;;;;24.38;16.70;;;;;;;2.49;100.00;99988.53;4998990;28;20103;-70
2022/03/08 05:03:29;;;;;;;26.98;17.50;;;;;;;2.47;100.00;100035.34;5048510;28;20387;-69
2022/03/08 05:05:55;;;;;;;27.63;18.75;;;;;;;2.29;100.00;100037.72;5052508;28;20101;-69
2022/03/08 05:08:20;;;;;;;34.60;22.65;;;;;;;2.19;100.00;99990.03;5034472;28;20509;-69
2022/03/08 05:10:46;;;;;;;34.65;22.73;;;;;;;1.69;100.00;99980.50;5052113;28;20099;-67
2022/03/08 05:13:11;;;;;;;36.28;23.27;;;;;;;2.24;100.00;100043.56;5052392;28;20021;-71
2022/03/08 05:15:37;;;;;;;43.20;26.85;;;;;;;2.40;100.00;100047.81;5052719;28;20040;-68
2022/03/08 05:18:03;;;;;;;27.10;18.08;;;;;;;2.47;100.00;100057.91;5051823;28;20040;-72
2022/03/08 05:20:28;;;;;;;34.42;21.65;;;;;;;2.12;100.00;100051.81;5052033;28;20024;-70
2022/03/08 05:22:54;;;;;;;29.13;18.63;;;;;;;2.33;100.00;100051.13;5052550;28;20411;-72
2022/03/08 05:25:20;;;;;;;28.13;17.90;;;;;;;1.96;100.00;99984.84;5033307;28;20033;-75
2022/03/08 05:27:46;;;;;;;20.42;14.30;;;;;;;2.13;100.00;100055.16;5052053;28;20025;-75
2022/03/08 05:30:13;;;;;;;21.80;15.23;;;;;;;1.86;100.00;99997.34;5032363;28;20549;-69
2022/03/08 05:32:38;;;;;;;20.05;13.98;;;;;;;2.14;100.00;100054.34;5032250;28;20043;-69
2022/03/08 05:35:04;;;;;;;21.92;14.73;;;;;;;2.65;100.00;100075.53;5033574;28;20427;-71
2022/03/08 05:37:29;;;;;;;26.10;15.88;;;;;;;2.50;100.00;100060.41;5034546;28;20585;-77
2022/03/08 05:39:55;;;;;;;24.40;16.50;;;;;;;2.48;100.00;100006.03;5051202;28;20041;-70
2022/03/08 05:42:20;;;;;;;21.48;14.25;;;;;;;3.14;100.00;100070.75;5051280;28;20095;-72
2022/03/08 05:44:45;;;;;;;20.40;13.52;;;;;;;1.90;100.00;99958.94;5033542;28;20469;-69
2022/03/08 05:47:11;;;;;;;21.50;14.27;;;;;;;2.34;100.00;100080.38;5033406;28;20037;-69
2022/03/08 05:49:36;;;;;;;24.85;17.90;;;;;;;2.43;100.00;100076.28;5032094;28;20028;-70
2022/03/08 05:52:02;;;;;;;21.40;14.63;;;;;;;2.17;100.00;100032.63;5050448;28;20471;-68
2022/03/08 05:54:28;;;;;;;21.85;15.63;;;;;;;2.75;100.00;100083.13;5049454;28;20079;-69
2022/03/08 05:56:53;;;;;;;21.60;14.77;;;;;;;2.60;100.00;100083.88;5050477;28;20078;-69
2022/03/08 05:59:19;;;;;;;23.00;14.23;;;;;;;2.85;100.00;100093.22;5050146;28;20109;-69
2022/03/08 06:01:44;;;;;;;18.52;13.45;;;;;;;2.50;100.00;100084.66;5051400;28;20033;-70
2022/03/08 06:04:10;;;;;;;20.42;13.93;;;;;;;2.76;100.00;100085.63;5070338;28;20115;-69
2022/03/08 06:06:35;;;;;;;18.70;13.10;;;;;;;2.95;100.00;100102.44;5070505;28;20089;-71
2022/03/08 06:09:01;;;;;;;23.40;15.15;;;;;;;2.23;100.00;100056.91;5070156;28;20032;-70
2022/03/08 06:11:26;;;;;;;19.48;13.95;;;;;;;2.04;100.00;100012.50;5070816;28;20475;-70
2022/03/08 06:13:52;;;;;;;20.05;14.60;;;;;;;2.72;100.00;100060.50;5053253;28;20025;-70
2022/03/08 06:16:17;;;;;;;19.67;13.85;;;;;;;2.94;100.00;100057.28;5070966;28;20028;-70
2022/03/08 06:18:43;;;;;;;21.58;14.63;;;;;;;2.83;100.00;100064.78;5070895;28;20033;-69
2022/03/08 06:21:09;;;;;;;21.00;14.32;;;;;;;2.60;100.00;100121.50;5070923;28;20474;-70
2022/03/08 06:23:34;;;;;;;19.30;14.73;;;;;;;2.29;100.00;100075.34;5070582;28;20036;-69
2022/03/08 06:26:00;;;;;;;22.27;15.70;;;;;;;3.01;100.00;100125.06;5070818;28;20417;-70
2022/03/08 06:28:25;;;;;;;19.35;13.50;;;;;;;2.68;100.00;100122.41;5070848;28;20039;-71
2022/03/08 06:30:51;;;;;;;20.42;14.27;;;;;;;2.52;100.00;100076.31;5070296;28;20025;-71
2022/03/08 06:33:16;;;;;;;19.40;14.07;;;;;;;2.95;100.00;100084.06;5071099;28;20033;-70
2022/03/08 06:35:42;;;;;;;19.38;13.23;;;;;;;2.50;100.00;100127.28;5070755;28;20047;-68
2022/03/08 06:38:07;;;;;;;19.17;13.27;;;;;;;2.55;100.00;100070.50;5052717;28;20028;-69
2022/03/08 06:40:33;;;;;;;20.77;16.27;;;;;;;2.23;100.00;100064.44;5070844;28;20063;-70
2022/03/08 06:42:58;;;;;;;20.17;14.65;;;;;;;2.75;100.00;100126.63;5070864;28;20031;-71
2022/03/08 06:45:24;;;;;;;19.63;15.27;;;;;;;2.40;100.00;100073.72;5066813;28;20625;-73
2022/03/08 06:47:49;;;;;;;21.15;15.30;;;;;;;2.49;100.00;100134.00;5049730;28;20032;-72
2022/03/08 06:50:15;;;;;;;25.45;18.35;;;;;;;2.45;100.00;100077.13;5050713;28;20029;-69
2022/03/08 06:52:40;;;;;;;24.95;19.08;;;;;;;3.01;100.00;100140.16;5050463;28;20033;-69
2022/03/08 06:55:06;;;;;;;25.48;18.92;;;;;;;3.34;100.00;100147.00;5032404;28;20025;-68
2022/03/08 06:57:32;;;;;;;29.00;20.98;;;;;;;3.01;100.00;100125.06;5050466;28;20509;-69
2022/03/08 06:59:57;;;;;;;21.98;17.50;;;;;;;2.92;100.00;100144.28;5050478;28;20032;-69
2022/03/08 07:02:23;;;;;;;23.35;17.10;;;;;;;3.19;100.00;100141.94;5032583;28;20049;-69
2022/03/08 07:04:49;;;;;;;22.13;15.40;;;;;;;3.12;100.00;100130.16;5050349;28;20545;-69
2022/03/08 07:07:14;;;;;;;19.95;14.52;;;;;;;2.55;100.00;100095.56;5032357;28;20565;-69
2022/03/08 07:09:39;;;;;;;18.27;12.55;;;;;;;2.26;100.00;100066.94;5050424;28;20021;-69
2022/03/08 07:12:07;;;;;;;19.85;13.10;;;;;;;2.52;100.00;100108.94;5050193;28;20534;-69
2022/03/08 07:14:32;;;;;;;21.45;14.85;;;;;;;2.94;100.00;100158.53;5050213;28;20037;-69
2022/03/08 07:16:58;;;;;;;17.23;12.45;;;;;;;2.80;100.00;100145.06;5050427;28;20052;-69
2022/03/08 07:19:23;;;;;;;20.70;14.68;;;;;;;2.86;100.00;100140.06;5050383;28;20029;-69
2022/03/08 07:21:48;;;;;;;21.42;14.95;;;;;;;3.10;100.00;100152.75;5050105;28;20060;-69
2022/03/08 07:24:15;;;;;;;22.15;16.42;;;;;;;3.34;100.00;100145.34;5049975;28;20033;-69
2022/03/08 07:26:40;;;;;;;18.52;13.30;;;;;;;2.98;100.00;100142.66;5050536;28;20418;-70
2022/03/08 07:29:06;;;;;;;22.80;16.55;;;;;;;3.08;100.00;100139.34;5032134;28;20035;-69
2022/03/08 07:31:31;;;;;;;22.65;16.60;;;;;;;3.33;100.00;100152.84;5032232;28;20426;-69
2022/03/08 07:33:57;;;;;;;17.50;12.57;;;;;;;2.86;100.00;100094.03;5050477;28;20126;-68
2022/03/08 07:36:23;;;;;;;18.23;13.15;;;;;;;3.33;100.00;100145.31;5050197;28;20021;-70
2022/03/08 07:38:49;;;;;;;17.42;13.10;;;;;;;3.00;100.00;100140.16;5031935;28;20040;-69
2022/03/08 07:41:15;;;;;;;38.10;19.83;;;;;;;2.88;100.00;100038.00;5050246;28;20037;-69
2022/03/08 07:43:40;;;;;;;21.02;14.82;;;;;;;3.19;100.00;100130.19;5054062;28;20029;-69
2022/03/08 07:46:08;;;;;;;18.40;13.50;;;;;;;2.96;100.00;100120.88;5053931;28;20069;-69
2022/03/08 07:48:34;;;;;;;20.25;14.07;;;;;;;3.23;100.00;100084.16;5053712;28;20036;-70
2022/03/08 07:50:59;;;;;;;38.28;20.52;;;;;;;3.96;100.00;100132.06;5053673;28;20033;-70
2022/03/08 07:53:25;;;;;;;18.27;12.65;;;;;;;3.46;100.00;100109.34;5035551;28;20163;-69
2022/03/08 07:55:51;;;;;;;19.40;13.18;;;;;;;3.54;100.00;100135.34;5035724;28;20094;-69
2022/03/08 07:58:17;;;;;;;23.73;14.73;;;;;;;3.77;100.00;100120.28;5053739;28;20062;-69
2022/03/08 08:00:42;;;;;;;24.08;16.55;;;;;;;3.22;100.00;100066.56;5053779;28;20036;-69
2022/03/08 08:03:08;;;;;;;23.52;16.02;;;;;;;3.45;100.00;100078.34;5053523;28;20514;-69
2022/03/08 08:05:35;;;;;;;27.15;18.52;;;;;;;3.67;100.00;100085.91;5053185;28;20041;-69
2022/03/08 08:08:03;;;;;;;25.67;18.08;;;;;;;3.46;100.00;100105.19;5053245;28;20118;-70
2022/03/08 08:10:29;;;;;;;24.80;17.95;;;;;;;3.80;100.00;100130.38;5035294;28;20041;-67
2022/03/08 08:12:55;;;;;;;18.02;13.38;;;;;;;3.58;100.00;100094.31;5053572;28;20513;-68
2022/03/08 08:15:20;;;;;;;15.73;12.15;;;;;;;3.18;100.00;100033.09;5035596;28;20025;-68
2022/03/08 08:17:46;;;;;;;17.05;13.20;;;;;;;3.74;100.00;100077.56;5035353;28;20029;-69
2022/03/08 08:20:11;;;;;;;17.83;13.20;;;;;;;3.64;100.00;100088.44;5053153;28;20447;-68
2022/03/08 08:22:38;;;;;;;16.25;12.07;;;;;;;3.94;100.00;100144.63;5053548;28;20483;-69
2022/03/08 08:25:05;;;;;;;16.45;11.70;;;;;;;3.41;100.00;100038.16;5053137;28;20499;-69
2022/03/08 08:27:31;;;;;;;14.20;11.32;;;;;;;3.56;100.00;100085.06;5053145;28;20032;-68
2022/03/08 08:29:56;;;;;;;14.93;11.75;;;;;;;3.58;100.00;100124.47;5052923;28;20391;-70
2022/03/08 08:32:21;;;;;;;15.32;12.20;;;;;;;3.84;100.00;100142.09;5053019;28;20059;-71
2022/03/08 08:34:47;;;;;;;17.88;12.75;;;;;;;3.69;100.00;100092.63;5053121;28;20025;-69
2022/03/08 08:37:12;;;;;;;14.70;9.80;;;;;;;3.22;100.00;100090.03;5052534;28;20443;-71
2022/03/08 08:39:38;;;;;;;14.63;11.52;;;;;;;4.27;100.00;100139.63;5052702;28;20025;-70
2022/03/08 08:42:04;;;;;;;16.10;12.18;;;;;;;3.63;100.00;100081.72;5035028;28;20418;-70
2022/03/08 08:44:30;;;;;;;15.93;11.70;;;;;;;3.88;100.00;100142.09;5052770;28;20029;-71
2022/03/08 08:46:55;;;;;;;14.20;10.98;;;;;;;3.95;100.00;100155.53;5052475;28;20036;-71
2022/03/08 08:49:21;;;;;;;16.58;11.98;;;;;;;4.11;100.00;100140.47;5052846;28;20454;-69
2022/03/08 08:51:46;;;;;;;15.77;11.38;;;;;;;4.13;100.00;100075.06;5052951;28;20059;-71
2022/03/08 08:54:12;;;;;;;15.77;11.95;;;;;;;4.16;100.00;100097.72;5052345;28;20035;-71
2022/03/08 08:56:38;;;;;;;29.13;16.40;;;;;;;4.00;100.00;100139.59;5052593;28;20057;-71
2022/03/08 08:59:05;;;;;;;15.80;12.15;;;;;;;3.94;100.00;100104.38;5052478;28;20033;-69
2022/03/08 09:01:31;;;;;;;25.40;15.18;;;;;;;4.16;100.00;100138.78;5052344;28;20102;-69
2022/03/08 09:03:57;;;;;;;56.70;25.23;;;;;;;4.16;100.00;100153.03;5052287;28;20546;-71
2022/03/08 09:06:22;;;;;;;14.50;10.80;;;;;;;3.78;100.00;100112.78;5052344;28;20106;-70
2022/03/08 09:08:48;;;;;;;13.43;10.65;;;;;;;4.05;100.00;100152.19;5034706;28;20025;-70
2022/03/08 09:11:13;;;;;;;12.77;10.40;;;;;;;4.25;100.00;100133.75;5034475;28;20487;-70
2022/03/08 09:13:39;;;;;;;16.48;12.63;;;;;;;4.15;100.00;100128.72;5052123;28;20025;-70
2022/03/08 09:16:06;;;;;;;21.50;13.15;;;;;;;4.44;100.00;100153.88;5052196;28;20032;-70
2022/03/08 09:18:31;;;;;;;19.85;14.38;;;;;;;4.28;100.00;100102.69;5048805;28;20536;-70
2022/03/08 09:20:57;;;;;;;12.95;10.85;;;;;;;4.19;100.00;100093.50;5071773;28;20083;-70
2022/03/08 09:23:22;;;;;;;16.17;12.18;;;;;;;4.15;100.00;100059.13;5054264;28;20058;-70
2022/03/08 09:25:48;;;;;;;17.33;12.82;;;;;;;4.57;100.00;100132.88;5054074;28;20034;-70
2022/03/08 09:28:13;;;;;;;13.25;11.77;;;;;;;4.91;100.00;100140.34;5071883;28;20035;-70
2022/03/08 09:30:41;;;;;;;11.27;9.60;;;;;;;3.86;100.00;100105.22;5072053;28;20060;-70
2022/03/08 09:33:06;;;;;;;12.23;10.02;;;;;;;4.61;100.00;100149.66;5071855;28;20028;-69
2022/03/08 09:35:32;;;;;;;14.93;11.13;;;;;;;4.74;100.00;100104.31;5071804;28;20460;-70
2022/03/08 09:37:58;;;;;;;13.73;11.10;;;;;;;4.53;100.00;100126.19;5071722;28;20036;-69
2022/03/08 09:40:23;;;;;;;13.80;10.65;;;;;;;4.51;100.00;100131.22;5071794;28;20032;-69
2022/03/08 09:42:50;;;;;;;16.58;13.32;;;;;;;5.32;100.00;100136.84;5053654;28;20021;-69
2022/03/08 09:45:17;;;;;;;16.88;12.75;;;;;;;5.13;100.00;100138.63;5053656;28;20082;-69
2022/03/08 09:47:43;;;;;;;15.05;12.52;;;;;;;5.60;100.00;100158.56;5071613;28;20032;-70
2022/03/08 09:50:11;;;;;;;12.10;10.10;;;;;;;5.34;100.00;100112.47;5071055;28;20120;-70
2022/03/08 09:52:39;;;;;;;12.70;10.50;;;;;;;5.42;100.00;100133.44;5053683;28;20036;-71
2022/03/08 09:55:06;;;;;;;13.73;11.13;;;;;;;5.04;100.00;100045.44;5071743;28;20031;-71
2022/03/08 09:57:32;;;;;;;11.10;9.43;;;;;;;5.38;100.00;100112.47;5053491;28;20028;-71
2022/03/08 09:59:57;;;;;;;15.00;11.05;;;;;;;5.91;100.00;100147.47;5071556;28;20123;-71
2022/03/08 10:02:23;;;;;;;12.85;10.25;;;;;;;5.60;100.00;100143.44;5053395;28;20581;-72
2022/03/08 10:05:05;;;;;;;12.40;10.40;;;;;;;6.11;100.00;100143.13;5052475;28;20029;-71
2022/03/08 10:07:31;;;;;;;14.77;11.43;;;;;;;6.01;100.00;100156.66;5053296;28;20028;-71
2022/03/08 10:09:58;;;;;;;13.45;10.32;;;;;;;5.13;100.00;100099.13;5071209;28;20094;-72
2022/03/08 10:12:25;;;;;;;12.85;10.15;;;;;;;5.68;100.00;100112.31;5071547;28;20111;-72
2022/03/08 10:14:51;;;;;;;14.23;11.55;;;;;;;5.19;100.00;100055.44;5071327;28;20512;-71
2022/03/08 10:17:37;;;;;;;15.32;12.20;;;;;;;5.24;100.00;100154.53;5043259;28;20033;-71
2022/03/08 10:20:05;;;;;;;17.45;13.50;;;;;;;5.13;100.00;100098.31;5051467;28;20482;-70
2022/03/08 10:22:33;;;;;;;14.43;12.15;;;;;;;5.58;100.00;100160.25;5033217;28;20059;-70
2022/03/08 10:25:29;;;;;;;15.52;11.35;;;;;;;5.35;100.00;100157.03;5051396;28;20521;-71
2022/03/08 10:27:55;;;;;;;13.65;11.25;;;;;;;5.28;100.00;100169.66;5030753;28;20474;-71
2022/03/08 10:30:26;;;;;;;14.50;11.75;;;;;;;5.28;100.00;100157.03;5051319;28;20024;-72
2022/03/08 10:32:54;;;;;;;18.02;13.40;;;;;;;5.18;100.00;100111.72;5046001;28;20451;-72
2022/03/08 10:35:29;;;;;;;12.77;10.88;;;;;;;5.09;100.00;100101.69;5071125;28;20493;-72
2022/03/08 10:38:02;;;;;;;15.10;12.40;;;;;;;5.15;100.00;100162.13;5070893;28;20036;-71
2022/03/08 10:40:32;;;;;;;15.75;12.20;;;;;;;5.31;100.00;100162.91;5071474;28;20496;-71
2022/03/08 10:43:03;;;;;;;14.40;11.18;;;;;;;5.00;100.00;100142.84;5048544;28;20024;-71
2022/03/08 10:45:30;;;;;;;16.20;11.82;;;;;;;5.25;100.00;100110.84;5070952;28;20112;-69
2022/03/08 10:47:56;;;;;;;14.98;11.55;;;;;;;4.85;100.00;100109.34;5070955;28;20036;-70
2022/03/08 10:50:24;;;;;;;14.68;11.52;;;;;;;5.25;100.00;100111.69;5048959;28;20029;-70
2022/03/08 10:52:52;;;;;;;14.43;11.85;;;;;;;5.92;100.00;100132.31;5032229;28;20044;-70
2022/03/08 10:55:22;;;;;;;14.30;11.73;;;;;;;5.57;100.00;100153.53;5030972;28;20492;-72
2022/03/08 10:57:53;;;;;;;15.13;12.43;;;;;;;6.28;100.00;100158.97;5029420;28;20487;-72
2022/03/08 11:00:21;;;;;;;14.40;11.68;;;;;;;5.63;100.00;100154.34;5013926;28;20099;-71
2022/03/08 11:03:05;;;;;;;15.20;11.63;;;;;;;5.58;100.00;100147.66;5030622;28;20176;-72
2022/03/08 11:05:33;;;;;;;12.30;10.45;;;;;;;5.18;100.00;100124.31;5012951;28;20026;-68
2022/03/08 11:07:59;;;;;;;12.45;10.05;;;;;;;5.57;100.00;100159.41;5013118;28;20459;-70